sensor_id;sensor_type;location;lat;lon;timestamp;temperature;humidity
44843;DHT22;31884;52.538;13.820;2023-12-29T00:02:19;6.90;99.90
44843;DHT22;31884;52.538;13.820;2023-12-29T00:04:45;7.00;99.90
44843;DHT22;31884;52.538;13.820;2023-12-29T00:07:10;7.00;99.90
44843;DHT22;31884;52.538;13.820;2023-12-29T00:09:36;7.10;99.90
44843;DHT22;31884;52.538;13.820;2023-12-29T00:12:06;7.10;99.90
44843;DHT22;31884;52.538;13.820;2023-12-29T00:14:32;7.10;99.90
44843;DHT22;31884;52.538;13.820;2023-12-29T00:16:58;7.10;99.90
44843;DHT22;31884;52.538;13.820;2023-12-29T00:19:23;7.10;99.90
44843;DHT22;31884;52.538;13.820;2023-12-29T00:21:49;7.20;99.90
44843;DHT22;31884;52.538;13.820;2023-12-29T00:24:14;7.20;99.90
44843;DHT22;31884;52.538;13.820;2023-12-29T00:26:40;7.30;99.90
44843;DHT22;31884;52.538;13.820;2023-12-29T00:29:05;7.30;99.90
44843;DHT22;31884;52.538;13.820;2023-12-29T00:31:32;7.30;99.90
44843;DHT22;31884;52.538;13.820;2023-12-29T00:33:57;7.30;99.90
44843;DHT22;31884;52.538;13.820;2023-12-29T00:36:23;7.30;99.90
44843;DHT22;31884;52.538;13.820;2023-12-29T00:38:49;7.40;99.90
44843;DHT22;31884;52.538;13.820;2023-12-29T00:41:14;7.30;99.90
44843;DHT22;31884;52.538;13.820;2023-12-29T00:43:40;7.30;99.90
44843;DHT22;31884;52.538;13.820;2023-12-29T00:46:05;7.30;99.90
44843;DHT22;31884;52.538;13.820;2023-12-29T00:48:32;7.40;99.90
44843;DHT22;31884;52.538;13.820;2023-12-29T00:50:57;7.40;99.90
44843;DHT22;31884;52.538;13.820;2023-12-29T00:53:23;7.40;99.90
44843;DHT22;31884;52.538;13.820;2023-12-29T00:55:49;7.40;99.90
44843;DHT22;31884;52.538;13.820;2023-12-29T00:58:14;7.50;99.90
44843;DHT22;31884;52.538;13.820;2023-12-29T01:00:39;7.50;99.90
44843;DHT22;31884;52.538;13.820;2023-12-29T01:03:05;7.50;99.90
44843;DHT22;31884;52.538;13.820;2023-12-29T01:05:31;7.50;99.90
44843;DHT22;31884;52.538;13.820;2023-12-29T01:07:56;7.50;99.90
44843;DHT22;31884;52.538;13.820;2023-12-29T01:10:22;7.50;99.90
44843;DHT22;31884;52.538;13.820;2023-12-29T01:12:47;7.50;99.90
44843;DHT22;31884;52.538;13.820;2023-12-29T01:15:13;7.50;99.90
44843;DHT22;31884;52.538;13.820;2023-12-29T01:17:38;7.40;99.90
44843;DHT22;31884;52.538;13.820;2023-12-29T01:20:04;7.40;99.90
44843;DHT22;31884;52.538;13.820;2023-12-29T01:22:30;7.40;99.90
44843;DHT22;31884;52.538;13.820;2023-12-29T01:24:55;7.40;99.90
44843;DHT22;31884;52.538;13.820;2023-12-29T01:27:21;7.40;99.90
44843;DHT22;31884;52.538;13.820;2023-12-29T01:29:46;7.40;99.90
44843;DHT22;31884;52.538;13.820;2023-12-29T01:32:12;7.40;99.90
44843;DHT22;31884;52.538;13.820;2023-12-29T01:34:37;7.40;99.90
44843;DHT22;31884;52.538;13.820;2023-12-29T01:37:04;7.40;99.90
44843;DHT22;31884;52.538;13.820;2023-12-29T01:39:30;7.30;99.90
44843;DHT22;31884;52.538;13.820;2023-12-29T01:41:56;7.40;99.90
44843;DHT22;31884;52.538;13.820;2023-12-29T01:44:22;7.30;99.90
44843;DHT22;31884;52.538;13.820;2023-12-29T01:46:49;7.30;99.90
44843;DHT22;31884;52.538;13.820;2023-12-29T01:49:16;7.30;99.90
44843;DHT22;31884;52.538;13.820;2023-12-29T01:51:48;7.30;99.90
44843;DHT22;31884;52.538;13.820;2023-12-29T01:54:14;7.30;99.90
44843;DHT22;31884;52.538;13.820;2023-12-29T01:56:41;7.30;99.90
44843;DHT22;31884;52.538;13.820;2023-12-29T01:59:06;7.30;99.90
44843;DHT22;31884;52.538;13.820;2023-12-29T02:01:32;7.30;99.90
44843;DHT22;31884;52.538;13.820;2023-12-29T02:03:58;7.30;99.90
44843;DHT22;31884;52.538;13.820;2023-12-29T02:06:25;7.30;99.90
44843;DHT22;31884;52.538;13.820;2023-12-29T02:08:51;7.30;99.90
44843;DHT22;31884;52.538;13.820;2023-12-29T02:11:17;7.20;99.90
44843;DHT22;31884;52.538;13.820;2023-12-29T02:13:43;7.20;99.90
44843;DHT22;31884;52.538;13.820;2023-12-29T02:18:53;7.20;99.90
44843;DHT22;31884;52.538;13.820;2023-12-29T02:21:24;7.30;99.90
44843;DHT22;31884;52.538;13.820;2023-12-29T02:23:50;7.20;99.90
44843;DHT22;31884;52.538;13.820;2023-12-29T02:26:16;7.20;99.90
44843;DHT22;31884;52.538;13.820;2023-12-29T02:28:48;7.20;99.90
44843;DHT22;31884;52.538;13.820;2023-12-29T02:31:20;7.20;99.90
44843;DHT22;31884;52.538;13.820;2023-12-29T02:33:49;7.30;99.90
44843;DHT22;31884;52.538;13.820;2023-12-29T02:36:16;7.30;99.90
44843;DHT22;31884;52.538;13.820;2023-12-29T02:38:42;7.30;99.90
44843;DHT22;31884;52.538;13.820;2023-12-29T02:41:07;7.30;99.90
44843;DHT22;31884;52.538;13.820;2023-12-29T02:43:33;7.20;99.90
44843;DHT22;31884;52.538;13.820;2023-12-29T02:45:59;7.20;99.90
44843;DHT22;31884;52.538;13.820;2023-12-29T02:48:24;7.20;99.90
44843;DHT22;31884;52.538;13.820;2023-12-29T02:50:50;7.20;99.90
44843;DHT22;31884;52.538;13.820;2023-12-29T02:53:16;7.20;99.90
44843;DHT22;31884;52.538;13.820;2023-12-29T02:55:41;7.20;99.90
44843;DHT22;31884;52.538;13.820;2023-12-29T02:58:08;7.20;99.90
44843;DHT22;31884;52.538;13.820;2023-12-29T03:00:33;7.20;99.90
44843;DHT22;31884;52.538;13.820;2023-12-29T03:02:59;7.20;99.90
44843;DHT22;31884;52.538;13.820;2023-12-29T03:05:25;7.20;99.90
44843;DHT22;31884;52.538;13.820;2023-12-29T03:07:50;7.20;99.90
44843;DHT22;31884;52.538;13.820;2023-12-29T03:10:16;7.20;99.90
44843;DHT22;31884;52.538;13.820;2023-12-29T03:12:41;7.30;99.90
44843;DHT22;31884;52.538;13.820;2023-12-29T03:15:07;7.30;99.90
44843;DHT22;31884;52.538;13.820;2023-12-29T03:17:32;7.40;99.90
44843;DHT22;31884;52.538;13.820;2023-12-29T03:19:58;7.40;99.90
44843;DHT22;31884;52.538;13.820;2023-12-29T03:22:24;7.50;99.90
44843;DHT22;31884;52.538;13.820;2023-12-29T03:24:49;7.50;99.90
44843;DHT22;31884;52.538;13.820;2023-12-29T03:27:15;7.40;99.90
44843;DHT22;31884;52.538;13.820;2023-12-29T03:29:40;7.50;99.90
44843;DHT22;31884;52.538;13.820;2023-12-29T03:32:06;7.50;99.90
44843;DHT22;31884;52.538;13.820;2023-12-29T03:34:32;7.50;99.90
44843;DHT22;31884;52.538;13.820;2023-12-29T03:36:58;7.50;99.90
44843;DHT22;31884;52.538;13.820;2023-12-29T03:39:23;7.60;99.90
44843;DHT22;31884;52.538;13.820;2023-12-29T03:41:49;7.60;99.90
44843;DHT22;31884;52.538;13.820;2023-12-29T03:44:14;7.60;99.90
44843;DHT22;31884;52.538;13.820;2023-12-29T03:46:40;7.60;99.80
44843;DHT22;31884;52.538;13.820;2023-12-29T03:49:06;7.50;99.90
44843;DHT22;31884;52.538;13.820;2023-12-29T03:51:31;7.50;99.90
44843;DHT22;31884;52.538;13.820;2023-12-29T03:53:57;7.40;99.90
44843;DHT22;31884;52.538;13.820;2023-12-29T03:56:23;7.50;99.90
44843;DHT22;31884;52.538;13.820;2023-12-29T03:58:49;7.40;99.90
44843;DHT22;31884;52.538;13.820;2023-12-29T04:01:16;7.40;99.90
44843;DHT22;31884;52.538;13.820;2023-12-29T04:03:41;7.50;99.90
44843;DHT22;31884;52.538;13.820;2023-12-29T04:06:08;7.50;99.90
44843;DHT22;31884;52.538;13.820;2023-12-29T04:08:37;7.50;99.90
44843;DHT22;31884;52.538;13.820;2023-12-29T04:11:04;7.60;99.90
44843;DHT22;31884;52.538;13.820;2023-12-29T04:13:30;7.60;99.90
44843;DHT22;31884;52.538;13.820;2023-12-29T04:15:56;7.60;99.90
44843;DHT22;31884;52.538;13.820;2023-12-29T04:18:24;7.70;99.90
44843;DHT22;31884;52.538;13.820;2023-12-29T04:20:50;7.70;99.60
44843;DHT22;31884;52.538;13.820;2023-12-29T04:23:15;7.70;99.60
44843;DHT22;31884;52.538;13.820;2023-12-29T04:25:41;7.70;99.60
44843;DHT22;31884;52.538;13.820;2023-12-29T04:28:07;7.80;99.30
44843;DHT22;31884;52.538;13.820;2023-12-29T04:30:34;7.80;99.10
44843;DHT22;31884;52.538;13.820;2023-12-29T04:32:59;7.80;99.10
44843;DHT22;31884;52.538;13.820;2023-12-29T04:35:25;7.70;99.00
44843;DHT22;31884;52.538;13.820;2023-12-29T04:37:50;7.70;99.00
44843;DHT22;31884;52.538;13.820;2023-12-29T04:40:16;7.60;98.90
44843;DHT22;31884;52.538;13.820;2023-12-29T04:42:42;7.60;98.70
44843;DHT22;31884;52.538;13.820;2023-12-29T04:45:08;7.60;98.70
44843;DHT22;31884;52.538;13.820;2023-12-29T04:47:33;7.60;98.80
44843;DHT22;31884;52.538;13.820;2023-12-29T04:49:59;7.60;98.80
44843;DHT22;31884;52.538;13.820;2023-12-29T04:52:24;7.60;98.90
44843;DHT22;31884;52.538;13.820;2023-12-29T04:54:50;7.60;99.00
44843;DHT22;31884;52.538;13.820;2023-12-29T04:57:15;7.60;99.00
44843;DHT22;31884;52.538;13.820;2023-12-29T04:59:41;7.60;99.10
44843;DHT22;31884;52.538;13.820;2023-12-29T05:02:06;7.60;99.00
44843;DHT22;31884;52.538;13.820;2023-12-29T05:04:32;7.60;98.90
44843;DHT22;31884;52.538;13.820;2023-12-29T05:06:57;7.60;99.00
44843;DHT22;31884;52.538;13.820;2023-12-29T05:09:23;7.60;99.00
44843;DHT22;31884;52.538;13.820;2023-12-29T05:11:48;7.60;99.10
44843;DHT22;31884;52.538;13.820;2023-12-29T05:14:14;7.60;98.90
44843;DHT22;31884;52.538;13.820;2023-12-29T05:16:41;7.60;99.00
44843;DHT22;31884;52.538;13.820;2023-12-29T05:19:07;7.60;99.20
44843;DHT22;31884;52.538;13.820;2023-12-29T05:21:32;7.60;99.30
44843;DHT22;31884;52.538;13.820;2023-12-29T05:23:58;7.70;99.40
44843;DHT22;31884;52.538;13.820;2023-12-29T05:26:23;7.70;99.50
44843;DHT22;31884;52.538;13.820;2023-12-29T05:28:49;7.70;99.30
44843;DHT22;31884;52.538;13.820;2023-12-29T05:31:14;7.80;99.40
44843;DHT22;31884;52.538;13.820;2023-12-29T05:33:40;7.80;99.40
44843;DHT22;31884;52.538;13.820;2023-12-29T05:36:06;7.80;99.30
44843;DHT22;31884;52.538;13.820;2023-12-29T05:38:33;7.80;99.10
44843;DHT22;31884;52.538;13.820;2023-12-29T05:40:59;7.80;99.10
44843;DHT22;31884;52.538;13.820;2023-12-29T05:43:26;7.90;99.00
44843;DHT22;31884;52.538;13.820;2023-12-29T05:45:52;7.90;99.10
44843;DHT22;31884;52.538;13.820;2023-12-29T05:48:17;7.90;99.00
44843;DHT22;31884;52.538;13.820;2023-12-29T05:50:43;7.90;98.80
44843;DHT22;31884;52.538;13.820;2023-12-29T05:53:08;7.90;98.80
44843;DHT22;31884;52.538;13.820;2023-12-29T05:55:34;7.90;98.70
44843;DHT22;31884;52.538;13.820;2023-12-29T05:57:59;7.90;98.80
44843;DHT22;31884;52.538;13.820;2023-12-29T06:00:25;7.90;98.80
44843;DHT22;31884;52.538;13.820;2023-12-29T06:02:50;7.90;98.70
44843;DHT22;31884;52.538;13.820;2023-12-29T06:05:16;8.00;98.60
44843;DHT22;31884;52.538;13.820;2023-12-29T06:07:41;8.10;98.40
44843;DHT22;31884;52.538;13.820;2023-12-29T06:10:07;8.10;98.30
44843;DHT22;31884;52.538;13.820;2023-12-29T06:12:34;8.10;98.20
44843;DHT22;31884;52.538;13.820;2023-12-29T06:14:59;8.20;97.90
44843;DHT22;31884;52.538;13.820;2023-12-29T06:17:25;8.20;97.60
44843;DHT22;31884;52.538;13.820;2023-12-29T06:19:50;8.20;97.40
44843;DHT22;31884;52.538;13.820;2023-12-29T06:22:16;8.30;97.20
44843;DHT22;31884;52.538;13.820;2023-12-29T06:24:41;8.30;97.20
44843;DHT22;31884;52.538;13.820;2023-12-29T06:27:09;8.30;97.20
44843;DHT22;31884;52.538;13.820;2023-12-29T06:29:35;8.30;97.20
44843;DHT22;31884;52.538;13.820;2023-12-29T06:32:02;8.30;96.80
44843;DHT22;31884;52.538;13.820;2023-12-29T06:34:27;8.30;96.70
44843;DHT22;31884;52.538;13.820;2023-12-29T06:36:53;8.30;96.80
44843;DHT22;31884;52.538;13.820;2023-12-29T06:39:18;8.40;96.80
44843;DHT22;31884;52.538;13.820;2023-12-29T06:41:44;8.40;96.70
44843;DHT22;31884;52.538;13.820;2023-12-29T06:44:09;8.40;96.50
44843;DHT22;31884;52.538;13.820;2023-12-29T06:46:39;8.40;96.30
44843;DHT22;31884;52.538;13.820;2023-12-29T06:49:07;8.50;96.20
44843;DHT22;31884;52.538;13.820;2023-12-29T06:51:33;8.50;96.10
44843;DHT22;31884;52.538;13.820;2023-12-29T06:53:59;8.50;95.60
44843;DHT22;31884;52.538;13.820;2023-12-29T06:56:25;8.60;95.50
44843;DHT22;31884;52.538;13.820;2023-12-29T06:58:51;8.60;95.50
44843;DHT22;31884;52.538;13.820;2023-12-29T07:01:16;8.60;95.40
44843;DHT22;31884;52.538;13.820;2023-12-29T07:03:42;8.70;95.30
44843;DHT22;31884;52.538;13.820;2023-12-29T07:06:07;8.70;94.90
44843;DHT22;31884;52.538;13.820;2023-12-29T07:08:34;8.70;95.00
44843;DHT22;31884;52.538;13.820;2023-12-29T07:10:59;8.70;94.80
44843;DHT22;31884;52.538;13.820;2023-12-29T07:13:25;8.70;94.80
44843;DHT22;31884;52.538;13.820;2023-12-29T07:15:50;8.80;94.50
44843;DHT22;31884;52.538;13.820;2023-12-29T07:18:16;8.80;94.30
44843;DHT22;31884;52.538;13.820;2023-12-29T07:20:42;8.80;94.20
44843;DHT22;31884;52.538;13.820;2023-12-29T07:23:08;8.80;94.30
44843;DHT22;31884;52.538;13.820;2023-12-29T07:25:33;8.80;94.30
44843;DHT22;31884;52.538;13.820;2023-12-29T07:27:59;8.90;94.20
44843;DHT22;31884;52.538;13.820;2023-12-29T07:30:24;8.90;93.70
44843;DHT22;31884;52.538;13.820;2023-12-29T07:32:51;9.00;93.60
44843;DHT22;31884;52.538;13.820;2023-12-29T07:35:17;9.00;93.40
44843;DHT22;31884;52.538;13.820;2023-12-29T07:37:43;9.00;93.40
44843;DHT22;31884;52.538;13.820;2023-12-29T07:40:13;9.00;93.20
44843;DHT22;31884;52.538;13.820;2023-12-29T07:42:42;9.10;93.30
44843;DHT22;31884;52.538;13.820;2023-12-29T07:45:09;9.10;93.20
44843;DHT22;31884;52.538;13.820;2023-12-29T07:47:35;9.20;93.20
44843;DHT22;31884;52.538;13.820;2023-12-29T07:50:01;9.20;93.10
44843;DHT22;31884;52.538;13.820;2023-12-29T07:52:26;9.20;92.80
44843;DHT22;31884;52.538;13.820;2023-12-29T07:54:52;9.30;93.30
44843;DHT22;31884;52.538;13.820;2023-12-29T07:57:17;9.30;92.70
44843;DHT22;31884;52.538;13.820;2023-12-29T07:59:43;9.40;92.60
44843;DHT22;31884;52.538;13.820;2023-12-29T08:02:08;9.40;92.40
44843;DHT22;31884;52.538;13.820;2023-12-29T08:04:34;9.50;92.60
44843;DHT22;31884;52.538;13.820;2023-12-29T08:07:00;9.40;92.70
44843;DHT22;31884;52.538;13.820;2023-12-29T08:09:26;9.50;92.40
44843;DHT22;31884;52.538;13.820;2023-12-29T08:11:51;9.60;92.40
44843;DHT22;31884;52.538;13.820;2023-12-29T08:14:17;9.60;92.10
44843;DHT22;31884;52.538;13.820;2023-12-29T08:16:42;9.60;92.10
44843;DHT22;31884;52.538;13.820;2023-12-29T08:19:08;9.60;91.80
44843;DHT22;31884;52.538;13.820;2023-12-29T08:21:35;9.60;91.80
44843;DHT22;31884;52.538;13.820;2023-12-29T08:24:00;9.70;91.80
44843;DHT22;31884;52.538;13.820;2023-12-29T08:26:26;9.70;91.80
44843;DHT22;31884;52.538;13.820;2023-12-29T08:28:52;9.80;91.80
44843;DHT22;31884;52.538;13.820;2023-12-29T08:31:18;10.00;91.40
44843;DHT22;31884;52.538;13.820;2023-12-29T08:33:44;10.00;91.20
44843;DHT22;31884;52.538;13.820;2023-12-29T08:36:11;10.00;91.10
44843;DHT22;31884;52.538;13.820;2023-12-29T08:38:36;10.10;90.80
44843;DHT22;31884;52.538;13.820;2023-12-29T08:41:02;10.20;90.70
44843;DHT22;31884;52.538;13.820;2023-12-29T08:43:28;10.30;90.60
44843;DHT22;31884;52.538;13.820;2023-12-29T08:45:53;10.30;90.50
44843;DHT22;31884;52.538;13.820;2023-12-29T08:48:19;10.40;90.00
44843;DHT22;31884;52.538;13.820;2023-12-29T08:50:45;10.60;90.00
44843;DHT22;31884;52.538;13.820;2023-12-29T08:53:10;10.80;89.20
44843;DHT22;31884;52.538;13.820;2023-12-29T08:55:36;10.90;87.90
44843;DHT22;31884;52.538;13.820;2023-12-29T08:58:01;10.90;87.40
44843;DHT22;31884;52.538;13.820;2023-12-29T09:00:27;10.90;87.50
44843;DHT22;31884;52.538;13.820;2023-12-29T09:02:53;10.90;88.00
44843;DHT22;31884;52.538;13.820;2023-12-29T09:05:19;10.90;87.50
44843;DHT22;31884;52.538;13.820;2023-12-29T09:07:44;10.90;87.50
44843;DHT22;31884;52.538;13.820;2023-12-29T09:10:10;11.10;87.90
44843;DHT22;31884;52.538;13.820;2023-12-29T09:12:38;11.20;86.20
44843;DHT22;31884;52.538;13.820;2023-12-29T09:15:05;11.20;86.10
44843;DHT22;31884;52.538;13.820;2023-12-29T09:17:30;11.20;85.60
44843;DHT22;31884;52.538;13.820;2023-12-29T09:19:56;11.20;86.00
44843;DHT22;31884;52.538;13.820;2023-12-29T09:22:21;11.10;85.80
44843;DHT22;31884;52.538;13.820;2023-12-29T09:24:47;11.20;85.30
44843;DHT22;31884;52.538;13.820;2023-12-29T09:27:12;11.20;84.60
44843;DHT22;31884;52.538;13.820;2023-12-29T09:29:39;11.20;84.50
44843;DHT22;31884;52.538;13.820;2023-12-29T09:32:06;11.10;84.40
44843;DHT22;31884;52.538;13.820;2023-12-29T09:34:31;11.10;84.50
44843;DHT22;31884;52.538;13.820;2023-12-29T09:36:57;11.00;84.80
44843;DHT22;31884;52.538;13.820;2023-12-29T09:39:22;11.00;85.00
44843;DHT22;31884;52.538;13.820;2023-12-29T09:41:54;10.90;85.10
44843;DHT22;31884;52.538;13.820;2023-12-29T09:44:22;10.90;85.00
44843;DHT22;31884;52.538;13.820;2023-12-29T09:46:52;10.80;85.20
44843;DHT22;31884;52.538;13.820;2023-12-29T09:49:19;10.80;85.40
44843;DHT22;31884;52.538;13.820;2023-12-29T09:51:45;10.90;85.80
44843;DHT22;31884;52.538;13.820;2023-12-29T09:54:11;11.00;85.40
44843;DHT22;31884;52.538;13.820;2023-12-29T09:56:38;11.10;85.40
44843;DHT22;31884;52.538;13.820;2023-12-29T09:59:04;11.00;85.20
44843;DHT22;31884;52.538;13.820;2023-12-29T10:01:30;11.00;85.00
44843;DHT22;31884;52.538;13.820;2023-12-29T10:03:57;11.00;84.50
44843;DHT22;31884;52.538;13.820;2023-12-29T10:06:26;11.00;85.10
44843;DHT22;31884;52.538;13.820;2023-12-29T10:08:53;11.00;84.70
44843;DHT22;31884;52.538;13.820;2023-12-29T10:11:21;10.90;84.90
44843;DHT22;31884;52.538;13.820;2023-12-29T10:13:49;10.90;84.90
44843;DHT22;31884;52.538;13.820;2023-12-29T10:16:28;10.90;85.00
44843;DHT22;31884;52.538;13.820;2023-12-29T10:19:17;10.90;85.00
44843;DHT22;31884;52.538;13.820;2023-12-29T10:22:01;10.90;85.10
44843;DHT22;31884;52.538;13.820;2023-12-29T10:24:29;10.90;85.10
44843;DHT22;31884;52.538;13.820;2023-12-29T10:26:55;10.90;85.20
44843;DHT22;31884;52.538;13.820;2023-12-29T10:29:21;10.90;84.90
44843;DHT22;31884;52.538;13.820;2023-12-29T10:31:47;10.90;85.20
44843;DHT22;31884;52.538;13.820;2023-12-29T10:34:23;11.00;85.00
44843;DHT22;31884;52.538;13.820;2023-12-29T10:36:56;11.00;85.60
44843;DHT22;31884;52.538;13.820;2023-12-29T10:39:22;11.00;84.80
44843;DHT22;31884;52.538;13.820;2023-12-29T10:41:49;11.00;84.70
44843;DHT22;31884;52.538;13.820;2023-12-29T10:44:15;11.00;84.70
44843;DHT22;31884;52.538;13.820;2023-12-29T10:46:41;11.10;84.60
44843;DHT22;31884;52.538;13.820;2023-12-29T10:49:10;11.10;84.30
44843;DHT22;31884;52.538;13.820;2023-12-29T10:51:37;11.20;84.50
44843;DHT22;31884;52.538;13.820;2023-12-29T10:54:03;11.10;84.10
44843;DHT22;31884;52.538;13.820;2023-12-29T10:56:30;11.20;83.70
44843;DHT22;31884;52.538;13.820;2023-12-29T10:59:03;11.20;83.90
44843;DHT22;31884;52.538;13.820;2023-12-29T11:01:34;11.20;83.20
44843;DHT22;31884;52.538;13.820;2023-12-29T11:04:01;11.20;83.30
44843;DHT22;31884;52.538;13.820;2023-12-29T11:06:29;11.20;83.30
44843;DHT22;31884;52.538;13.820;2023-12-29T11:08:55;11.20;83.60
44843;DHT22;31884;52.538;13.820;2023-12-29T11:11:21;11.30;83.30
44843;DHT22;31884;52.538;13.820;2023-12-29T11:13:47;11.30;83.50
44843;DHT22;31884;52.538;13.820;2023-12-29T11:16:14;11.30;83.50
44843;DHT22;31884;52.538;13.820;2023-12-29T11:18:43;11.20;83.20
44843;DHT22;31884;52.538;13.820;2023-12-29T11:21:10;11.30;83.20
44843;DHT22;31884;52.538;13.820;2023-12-29T11:23:36;11.30;83.00
44843;DHT22;31884;52.538;13.820;2023-12-29T11:26:03;11.30;83.00
44843;DHT22;31884;52.538;13.820;2023-12-29T11:28:29;11.30;83.20
44843;DHT22;31884;52.538;13.820;2023-12-29T11:30:54;11.30;83.20
44843;DHT22;31884;52.538;13.820;2023-12-29T11:33:29;11.30;83.70
44843;DHT22;31884;52.538;13.820;2023-12-29T11:35:56;11.30;82.80
44843;DHT22;31884;52.538;13.820;2023-12-29T11:41:37;11.30;82.30
44843;DHT22;31884;52.538;13.820;2023-12-29T11:44:03;11.40;82.60
44843;DHT22;31884;52.538;13.820;2023-12-29T11:48:59;11.30;82.40
44843;DHT22;31884;52.538;13.820;2023-12-29T11:51:30;11.30;82.50
44843;DHT22;31884;52.538;13.820;2023-12-29T11:53:56;11.30;82.60
44843;DHT22;31884;52.538;13.820;2023-12-29T11:56:22;11.30;82.50
44843;DHT22;31884;52.538;13.820;2023-12-29T11:58:48;11.30;82.50
44843;DHT22;31884;52.538;13.820;2023-12-29T12:01:14;11.30;82.50
44843;DHT22;31884;52.538;13.820;2023-12-29T12:03:57;11.30;82.30
44843;DHT22;31884;52.538;13.820;2023-12-29T12:06:39;11.30;82.30
44843;DHT22;31884;52.538;13.820;2023-12-29T12:09:23;11.20;81.70
44843;DHT22;31884;52.538;13.820;2023-12-29T12:11:50;11.20;81.90
44843;DHT22;31884;52.538;13.820;2023-12-29T12:14:50;11.20;82.10
44843;DHT22;31884;52.538;13.820;2023-12-29T12:17:34;11.10;81.70
44843;DHT22;31884;52.538;13.820;2023-12-29T12:20:07;11.10;82.20
44843;DHT22;31884;52.538;13.820;2023-12-29T12:22:36;11.00;82.10
44843;DHT22;31884;52.538;13.820;2023-12-29T12:25:03;11.10;82.10
44843;DHT22;31884;52.538;13.820;2023-12-29T12:27:30;11.10;82.40
44843;DHT22;31884;52.538;13.820;2023-12-29T12:29:57;11.10;82.50
44843;DHT22;31884;52.538;13.820;2023-12-29T12:32:28;11.10;82.70
44843;DHT22;31884;52.538;13.820;2023-12-29T12:34:55;11.00;82.90
44843;DHT22;31884;52.538;13.820;2023-12-29T12:37:26;11.00;82.90
44843;DHT22;31884;52.538;13.820;2023-12-29T12:39:52;11.00;83.00
44843;DHT22;31884;52.538;13.820;2023-12-29T12:42:19;11.00;83.40
44843;DHT22;31884;52.538;13.820;2023-12-29T12:44:56;11.00;83.50
44843;DHT22;31884;52.538;13.820;2023-12-29T12:47:33;11.00;83.90
44843;DHT22;31884;52.538;13.820;2023-12-29T12:50:00;10.90;84.30
44843;DHT22;31884;52.538;13.820;2023-12-29T12:52:30;10.90;85.40
44843;DHT22;31884;52.538;13.820;2023-12-29T12:54:56;10.90;85.70
44843;DHT22;31884;52.538;13.820;2023-12-29T12:57:22;10.80;86.50
44843;DHT22;31884;52.538;13.820;2023-12-29T12:59:49;10.80;87.10
44843;DHT22;31884;52.538;13.820;2023-12-29T13:02:16;10.70;88.00
44843;DHT22;31884;52.538;13.820;2023-12-29T13:04:42;10.70;88.40
44843;DHT22;31884;52.538;13.820;2023-12-29T13:07:08;10.60;89.20
44843;DHT22;31884;52.538;13.820;2023-12-29T13:09:38;10.60;90.00
44843;DHT22;31884;52.538;13.820;2023-12-29T13:12:08;10.60;90.40
44843;DHT22;31884;52.538;13.820;2023-12-29T13:14:33;10.50;90.80
44843;DHT22;31884;52.538;13.820;2023-12-29T13:17:05;10.50;91.40
44843;DHT22;31884;52.538;13.820;2023-12-29T13:19:31;10.40;92.20
44843;DHT22;31884;52.538;13.820;2023-12-29T13:21:59;10.30;92.70
44843;DHT22;31884;52.538;13.820;2023-12-29T13:24:25;10.30;93.80
44843;DHT22;31884;52.538;13.820;2023-12-29T13:26:54;10.20;94.20
44843;DHT22;31884;52.538;13.820;2023-12-29T13:29:21;10.20;95.00
44843;DHT22;31884;52.538;13.820;2023-12-29T13:31:48;10.20;95.40
44843;DHT22;31884;52.538;13.820;2023-12-29T13:34:21;10.10;95.70
44843;DHT22;31884;52.538;13.820;2023-12-29T13:36:59;10.10;95.90
44843;DHT22;31884;52.538;13.820;2023-12-29T13:39:40;10.10;96.40
44843;DHT22;31884;52.538;13.820;2023-12-29T13:42:09;10.10;96.40
44843;DHT22;31884;52.538;13.820;2023-12-29T13:44:38;10.10;96.50
44843;DHT22;31884;52.538;13.820;2023-12-29T13:47:05;10.10;96.90
44843;DHT22;31884;52.538;13.820;2023-12-29T13:49:31;10.10;96.60
44843;DHT22;31884;52.538;13.820;2023-12-29T13:52:04;10.10;96.60
44843;DHT22;31884;52.538;13.820;2023-12-29T13:54:30;10.10;96.20
44843;DHT22;31884;52.538;13.820;2023-12-29T13:56:56;10.20;96.00
44843;DHT22;31884;52.538;13.820;2023-12-29T13:59:31;10.20;95.60
44843;DHT22;31884;52.538;13.820;2023-12-29T14:02:02;10.20;95.30
44843;DHT22;31884;52.538;13.820;2023-12-29T14:04:28;10.30;94.80
44843;DHT22;31884;52.538;13.820;2023-12-29T14:07:03;10.30;94.60
44843;DHT22;31884;52.538;13.820;2023-12-29T14:09:29;10.30;94.40
44843;DHT22;31884;52.538;13.820;2023-12-29T14:11:55;10.30;94.40
44843;DHT22;31884;52.538;13.820;2023-12-29T14:14:25;10.30;94.10
44843;DHT22;31884;52.538;13.820;2023-12-29T14:16:54;10.40;94.10
44843;DHT22;31884;52.538;13.820;2023-12-29T14:19:20;10.40;94.00
44843;DHT22;31884;52.538;13.820;2023-12-29T14:21:52;10.40;93.90
44843;DHT22;31884;52.538;13.820;2023-12-29T14:24:19;10.40;93.80
44843;DHT22;31884;52.538;13.820;2023-12-29T14:26:55;10.40;93.60
44843;DHT22;31884;52.538;13.820;2023-12-29T14:29:22;10.40;93.50
44843;DHT22;31884;52.538;13.820;2023-12-29T14:31:48;10.40;93.30
44843;DHT22;31884;52.538;13.820;2023-12-29T14:34:16;10.50;93.00
44843;DHT22;31884;52.538;13.820;2023-12-29T14:36:42;10.50;92.90
44843;DHT22;31884;52.538;13.820;2023-12-29T14:39:08;10.50;93.00
44843;DHT22;31884;52.538;13.820;2023-12-29T14:41:35;10.50;92.90
44843;DHT22;31884;52.538;13.820;2023-12-29T14:44:01;10.50;92.80
44843;DHT22;31884;52.538;13.820;2023-12-29T14:46:27;10.50;92.90
44843;DHT22;31884;52.538;13.820;2023-12-29T14:48:53;10.50;92.80
44843;DHT22;31884;52.538;13.820;2023-12-29T14:51:19;10.50;92.70
44843;DHT22;31884;52.538;13.820;2023-12-29T14:53:47;10.40;92.50
44843;DHT22;31884;52.538;13.820;2023-12-29T14:56:13;10.40;92.50
44843;DHT22;31884;52.538;13.820;2023-12-29T14:58:39;10.40;92.40
44843;DHT22;31884;52.538;13.820;2023-12-29T15:01:05;10.40;92.40
44843;DHT22;31884;52.538;13.820;2023-12-29T15:03:32;10.50;92.40
44843;DHT22;31884;52.538;13.820;2023-12-29T15:05:58;10.50;92.40
44843;DHT22;31884;52.538;13.820;2023-12-29T15:08:24;10.50;92.20
44843;DHT22;31884;52.538;13.820;2023-12-29T15:10:50;10.50;92.30
44843;DHT22;31884;52.538;13.820;2023-12-29T15:13:16;10.60;92.30
44843;DHT22;31884;52.538;13.820;2023-12-29T15:15:42;10.50;92.30
44843;DHT22;31884;52.538;13.820;2023-12-29T15:18:07;10.60;92.20
44843;DHT22;31884;52.538;13.820;2023-12-29T15:20:33;10.50;92.00
44843;DHT22;31884;52.538;13.820;2023-12-29T15:22:58;10.50;92.00
44843;DHT22;31884;52.538;13.820;2023-12-29T15:25:26;10.50;92.20
44843;DHT22;31884;52.538;13.820;2023-12-29T15:27:52;10.50;92.20
44843;DHT22;31884;52.538;13.820;2023-12-29T15:30:18;10.40;92.30
44843;DHT22;31884;52.538;13.820;2023-12-29T15:32:44;10.40;92.60